El Chanar, Argentina
Current Conditions -  °F | °C
As of 2:00 AM on Sunday 21 Dec 2014 (Local Time) from SANT Reporting Station
Drizzle Drizzle  
Wind Chill: 68°   Ceiling: 1500
Heat Index: 68°   Visibility: 5mi
Dew Point: 64°   Wind: 12mph
Humidity: 88%   Direction: 180°S
Pressure: 29.74"   Gusts: NA
Location:  26.77°S, 65.05°W
Report Text: SANT 210500Z 18010KT 8000 DZ BKN015 OVC03520/18 Q1007
Loading
Personal Weather Stations






























Interactive Weather Map New forecast layout! Learn more

10-Day Weather Forecast

Advertisements
Track Severe Weather on mobile